Time;durP1;ratioP1;P1;durP2;ratioP2;P2;SDS_P1;SDS_P2;PMS_P1;PMS_P2;Temp;Humidity;BMP_temperature;BMP_pressure;BME280_temperature;BME280_humidity;BME280_pressure;Samples;Min_cycle;Max_cycle;Signal;HPM_P1;HPM_P2
2023/06/22 00:07:45;;;;;;;1.80;1.27;;;;;;;;;;20809929;28;20964;-73
2023/06/22 00:17:47;;;;;;;1.73;1.20;;;;;;;;;;20809493;28;20706;-74
2023/06/22 00:27:49;;;;;;;2.10;1.30;;;;;;;;;;20821390;28;20224;-74
2023/06/22 00:37:51;;;;;;;1.90;1.15;;;;;;;;;;20825321;28;20229;-74
2023/06/22 00:47:53;;;;;;;1.42;1.00;;;;;;;;;;20807456;28;20612;-74
2023/06/22 00:57:56;;;;;;;3.35;1.30;;;;;;;;;;20807787;28;20298;-74
2023/06/22 01:08:04;;;;;;;2.65;1.23;;;26.20;99.90;;;;;;20806702;28;20274;-73
2023/06/22 01:18:08;;;;;;;2.13;1.42;;;25.90;99.90;;;;;;20803214;28;20291;-74
2023/06/22 01:28:30;;;;;;;1.95;1.30;;;;;;;;;;20805491;28;20251;-74
2023/06/22 01:38:33;;;;;;;2.67;1.58;;;;;;;;;;20859432;23;20231;-68
2023/06/22 01:48:35;;;;;;;2.83;1.23;;;;;;;;;;20855892;28;20286;-68
2023/06/22 01:58:58;;;;;;;4.65;1.50;;;25.80;99.90;;;;;;20853516;28;20236;-68
2023/06/22 02:09:02;;;;;;;4.32;1.77;;;;;;;;;;20847637;28;20237;-68
2023/06/22 02:19:06;;;;;;;2.50;1.80;;;;;;;;;;20868318;28;20580;-68
2023/06/22 02:29:09;;;;;;;4.93;1.80;;;;;;;;;;20874466;28;20283;-68
2023/06/22 02:39:11;;;;;;;3.20;1.73;;;;;;;;;;20850398;28;20299;-68
2023/06/22 02:49:13;;;;;;;4.80;1.95;;;;;;;;;;20866154;28;20235;-68
2023/06/22 02:59:15;;;;;;;3.42;1.95;;;;;;;;;;20847738;28;20230;-68
2023/06/22 03:09:19;;;;;;;3.15;2.20;;;;;;;;;;20865136;28;20242;-68
2023/06/22 03:19:21;;;;;;;3.33;1.95;;;;;;;;;;20845848;28;20228;-68
2023/06/22 03:29:25;;;;;;;3.13;2.20;;;;;;;;;;20846077;28;20242;-69
2023/06/22 03:39:28;;;;;;;3.50;2.22;;;;;;;;;;20899779;28;21713;-68
2023/06/22 03:49:30;;;;;;;3.95;2.53;;;;;;;;;;20859843;28;20725;-68
2023/06/22 03:59:32;;;;;;;3.35;2.38;;;;;;;;;;20864076;28;20228;-67
2023/06/22 04:09:34;;;;;;;4.10;2.67;;;;;;;;;;20859392;28;20221;-68
2023/06/22 04:19:36;;;;;;;2.88;2.33;;;;;;;;;;20861778;28;20228;-69
2023/06/22 04:29:43;;;;;;;3.28;2.50;;;;;;;;;;20881451;28;20221;-66
2023/06/22 04:39:45;;;;;;;3.70;2.10;;;;;;;;;;20860322;28;20233;-68
2023/06/22 04:49:47;;;;;;;4.25;2.50;;;;;;;;;;20859573;28;20231;-69
2023/06/22 04:59:49;;;;;;;3.83;2.75;;;;;;;;;;20859396;28;20279;-68
2023/06/22 05:09:50;;;;;;;4.47;2.65;;;;;;;;;;20856599;28;20212;-67
2023/06/22 05:19:52;;;;;;;3.50;2.50;;;;;;;;;;20857343;28;20228;-67
2023/06/22 05:29:54;;;;;;;4.88;2.53;;;;;;;;;;20869632;28;20236;-68
2023/06/22 05:39:57;;;;;;;3.22;2.67;;;25.20;99.90;;;;;;20878664;28;20289;-69
2023/06/22 05:49:59;;;;;;;4.18;2.95;;;;;;;;;;20837848;28;20207;-68
2023/06/22 06:00:00;;;;;;;4.20;3.42;;;;;;;;;;20870641;28;20233;-69
2023/06/22 06:10:03;;;;;;;4.05;3.08;;;25.60;99.90;;;;;;20869466;28;20248;-69
2023/06/22 06:20:07;;;;;;;3.85;2.97;;;25.70;99.90;;;;;;20858437;28;20240;-69
2023/06/22 06:30:09;;;;;;;3.10;2.47;;;26.00;99.90;;;;;;20856978;28;20208;-68
2023/06/22 06:40:12;;;;;;;3.67;2.85;;;;;;;;;;20832770;28;20237;-68
2023/06/22 06:50:14;;;;;;;4.20;2.83;;;;;;;;;;20846589;28;20219;-69
2023/06/22 07:00:16;;;;;;;3.55;2.78;;;;;;;;;;20870205;28;20280;-69
2023/06/22 07:10:18;;;;;;;4.35;2.40;;;;;;;;;;20847407;28;20216;-69
2023/06/22 07:20:19;;;;;;;3.47;2.55;;;;;;;;;;20857807;28;20251;-69
2023/06/22 07:30:21;;;;;;;3.33;2.45;;;;;;;;;;20866853;28;20216;-69
2023/06/22 07:40:23;;;;;;;3.65;2.00;;;;;;;;;;20845890;28;20571;-69
2023/06/22 07:50:25;;;;;;;2.15;1.63;;;;;;;;;;20842760;28;20267;-69
2023/06/22 08:00:27;;;;;;;1.85;1.23;;;;;;;;;;20856791;28;20259;-69
2023/06/22 08:10:29;;;;;;;1.60;1.20;;;;;;;;;;20830896;28;20212;-70
2023/06/22 08:20:31;;;;;;;2.25;1.45;;;;;;;;;;20865880;28;20236;-70
2023/06/22 08:30:33;;;;;;;1.92;1.10;;;;;;;;;;20879635;28;20283;-69
2023/06/22 08:40:35;;;;;;;2.03;1.30;;;;;;;;;;20885744;28;20232;-71
2023/06/22 08:50:37;;;;;;;1.85;1.05;;;;;;;;;;20867625;28;20583;-70
2023/06/22 09:00:38;;;;;;;2.10;1.10;;;;;;;;;;20855338;28;20266;-70
2023/06/22 09:10:40;;;;;;;1.90;1.30;;;;;;;;;;20869549;28;20631;-71
2023/06/22 09:20:42;;;;;;;3.67;1.40;;;;;;;;;;20874386;28;20297;-70
2023/06/22 09:30:44;;;;;;;1.92;1.02;;;;;;;;;;20851160;28;20224;-71
2023/06/22 09:40:47;;;;;;;2.00;1.50;;;;;;;;;;20868032;28;20259;-70
2023/06/22 09:50:48;;;;;;;2.30;1.38;;;;;;;;;;20850711;28;20221;-70
2023/06/22 10:00:50;;;;;;;2.30;1.40;;;;;;;;;;20860586;28;20611;-69
2023/06/22 10:10:52;;;;;;;2.92;1.40;;;;;;;;;;20868054;28;20621;-69
2023/06/22 10:20:54;;;;;;;2.80;1.70;;;;;;;;;;20875528;28;20642;-70
2023/06/22 10:30:56;;;;;;;3.25;1.50;;;;;;;;;;20879752;28;20217;-70
2023/06/22 10:40:58;;;;;;;4.47;1.58;;;;;;;;;;20868918;28;20256;-69
2023/06/22 10:51:00;;;;;;;2.28;1.42;;;;;;;;;;20843186;28;20276;-71
2023/06/22 11:01:03;;;;;;;2.65;1.50;;;;;;;;;;20864437;28;20272;-70
2023/06/22 11:11:04;;;;;;;3.03;1.42;;;;;;;;;;20844763;28;20210;-69
2023/06/22 11:21:06;;;;;;;4.13;1.50;;;;;;;;;;20871203;28;20698;-70
2023/06/22 11:31:08;;;;;;;2.13;1.30;;;;;;;;;;20844485;28;20279;-70
2023/06/22 11:41:11;;;;;;;2.50;1.50;;;;;;;;;;20848438;28;20226;-69
2023/06/22 11:51:13;;;;;;;3.88;1.70;;;;;;;;;;20858320;28;20214;-69
2023/06/22 12:01:15;;;;;;;4.13;1.73;;;;;;;;;;20873287;28;20284;-69
2023/06/22 12:11:17;;;;;;;1.80;1.35;;;;;;;;;;20873584;28;20245;-69
2023/06/22 12:21:19;;;;;;;2.72;1.50;;;;;;;;;;20875933;28;20226;-69
2023/06/22 12:31:20;;;;;;;3.17;1.65;;;;;;;;;;20874681;28;20263;-71
2023/06/22 12:41:23;;;;;;;2.25;1.55;;;;;;;;;;20876820;28;20242;-69
2023/06/22 12:51:25;;;;;;;3.78;1.65;;;;;;;;;;20877408;28;20253;-69
2023/06/22 13:01:27;;;;;;;2.47;1.42;;;;;;;;;;20857052;28;20257;-70
2023/06/22 13:11:29;;;;;;;4.10;1.52;;;;;;;;;;20860045;28;20276;-69
2023/06/22 13:21:31;;;;;;;2.55;1.70;;;32.50;99.90;;;;;;20845133;28;20605;-70
2023/06/22 13:31:33;;;;;;;2.58;1.65;;;;;;;;;;20840651;28;20900;-69
2023/06/22 13:41:35;;;;;;;2.38;1.38;;;;;;;;;;20871212;28;20249;-70
2023/06/22 13:51:37;;;;;;;2.70;1.33;;;;;;;;;;20859349;28;20299;-69
2023/06/22 14:01:40;;;;;;;3.13;1.40;;;;;;;;;;20812249;23;20312;-71
2023/06/22 14:11:42;;;;;;;2.10;1.23;;;;;;;;;;20877209;28;20214;-71
2023/06/22 14:21:44;;;;;;;3.72;1.70;;;;;;;;;;20896139;28;20221;-70
2023/06/22 14:31:49;;;;;;;2.90;1.75;;;30.30;99.90;;;;;;20860398;28;20657;-75
2023/06/22 14:41:51;;;;;;;3.90;1.58;;;;;;;;;;20889262;28;20804;-75
2023/06/22 14:51:53;;;;;;;3.30;1.58;;;;;;;;;;20892200;28;20287;-74
2023/06/22 15:01:55;;;;;;;4.22;1.60;;;;;;;;;;20883983;28;20226;-76
2023/06/22 15:11:57;;;;;;;2.33;1.70;;;;;;;;;;20876290;28;20532;-76
2023/06/22 15:21:59;;;;;;;3.50;1.88;;;;;;;;;;20895614;28;20226;-76
2023/06/22 15:32:01;;;;;;;6.82;1.98;;;;;;;;;;20860854;28;20221;-74
2023/06/22 15:42:03;;;;;;;3.00;1.63;;;;;;;;;;20902631;28;20599;-74
2023/06/22 15:52:04;;;;;;;2.58;1.48;;;;;;;;;;20891710;28;20581;-75
2023/06/22 16:02:06;;;;;;;3.75;1.70;;;;;;;;;;20884173;28;20931;-74
2023/06/22 16:12:08;;;;;;;4.53;1.73;;;;;;;;;;20878657;28;20206;-74
2023/06/22 16:22:10;;;;;;;3.38;1.90;;;;;;;;;;20899991;28;20547;-74
2023/06/22 16:32:14;;;;;;;4.60;1.90;;;;;;;;;;20885814;28;20229;-74
2023/06/22 16:42:19;;;;;;;2.97;1.02;;;;;;;;;;20905602;28;20202;-75
2023/06/22 16:52:21;;;;;;;1.80;1.10;;;;;;;;;;20896806;28;20221;-74
2023/06/22 17:02:24;;;;;;;1.88;1.17;;;;;;;;;;20882492;28;20649;-75
2023/06/22 17:12:27;;;;;;;3.70;1.40;;;;;;;;;;20890971;28;20763;-73
2023/06/22 17:22:35;;;;;;;2.88;1.23;;;;;;;;;;20863718;28;20288;-76
2023/06/22 17:32:36;;;;;;;1.40;0.90;;;31.00;99.90;;;;;;20892056;28;20249;-75
2023/06/22 17:42:38;;;;;;;5.85;1.00;;;;;;;;;;20890601;28;20256;-75
2023/06/22 17:52:40;;;;;;;2.90;1.27;;;;;;;;;;20886323;28;20284;-75
2023/06/22 18:02:42;;;;;;;2.55;0.80;;;;;;;;;;20908344;28;20198;-75
2023/06/22 18:12:45;;;;;;;1.38;1.02;;;;;;;;;;20888465;28;20233;-75
2023/06/22 18:22:48;;;;;;;1.63;0.70;;;;;;;;;;20893890;28;20198;-75
2023/06/22 18:32:51;;;;;;;1.75;0.90;;;;;;;;;;20896828;28;20657;-75
2023/06/22 18:42:59;;;;;;;4.07;0.80;;;;;;;;;;20878679;28;20225;-76
2023/06/22 18:53:04;;;;;;;1.35;0.50;;;;;;;;;;20894690;28;20218;-75
2023/06/22 19:03:06;;;;;;;6.18;0.70;;;;;;;;;;20892540;28;20218;-76
2023/06/22 19:13:28;;;;;;;0.52;0.40;;;29.70;99.90;;;;;;20858407;28;20222;-76
2023/06/22 19:23:34;;;;;;;0.63;0.35;;;;;;;;;;20891368;28;20230;-76
2023/06/22 19:33:37;;;;;;;2.40;0.50;;;29.40;99.90;;;;;;20890648;28;20229;-76
2023/06/22 19:43:38;;;;;;;0.25;0.20;;;;;;;;;;20890610;28;20198;-75
2023/06/22 19:53:41;;;;;;;0.57;0.28;;;28.80;99.90;;;;;;20868276;28;20284;-75
2023/06/22 20:03:43;;;;;;;2.13;0.35;;;;;;;;;;20954141;23;20725;-70
2023/06/22 20:13:49;;;;;;;0.30;0.20;;;;;;;;;;20845835;28;20245;-71
2023/06/22 20:23:51;;;;;;;0.80;0.30;;;;;;;;;;20854965;28;20221;-69
2023/06/22 20:34:05;;;;;;;0.93;0.35;;;;;;;;;;20883551;28;20224;-69
2023/06/22 20:44:07;;;;;;;0.47;0.25;;;;;;;;;;20862266;28;20454;-70
2023/06/22 20:54:09;;;;;;;0.20;0.20;;;;;;;;;;20860098;28;20233;-69
2023/06/22 21:04:10;;;;;;;0.20;0.20;;;;;;;;;;20875262;28;20306;-69
2023/06/22 21:14:13;;;;;;;0.38;0.20;;;;;;;;;;20902687;28;20249;-69
2023/06/22 21:24:15;;;;;;;0.38;0.20;;;;;;;;;;20847586;28;20648;-69
2023/06/22 21:34:16;;;;;;;0.20;0.20;;;;;;;;;;20871755;28;20566;-69
2023/06/22 21:44:18;;;;;;;0.30;0.28;;;;;;;;;;20855641;28;20258;-69
2023/06/22 21:54:20;;;;;;;0.88;0.35;;;;;;;;;;20871173;28;20290;-69
2023/06/22 22:04:22;;;;;;;1.35;0.38;;;;;;;;;;20854683;28;20278;-69
2023/06/22 22:14:24;;;;;;;0.25;0.22;;;;;;;;;;20885459;28;20717;-69
2023/06/22 22:24:26;;;;;;;0.35;0.30;;;;;;;;;;20883564;28;20227;-69
2023/06/22 22:34:28;;;;;;;0.35;0.30;;;;;;;;;;20852007;28;20232;-69
2023/06/22 22:44:30;;;;;;;0.38;0.25;;;;;;;;;;20851506;28;20261;-69
2023/06/22 22:54:32;;;;;;;0.20;0.20;;;;;;;;;;20867656;28;20293;-69
2023/06/22 23:04:34;;;;;;;0.20;0.20;;;;;;;;;;20847248;28;20257;-69
2023/06/22 23:14:37;;;;;;;0.30;0.20;;;;;;;;;;20847743;28;20648;-70
2023/06/22 23:24:38;;;;;;;1.58;0.20;;;;;;;;;;20838818;28;20680;-69
2023/06/22 23:34:43;;;;;;;0.47;0.40;;;;;;;;;;20874632;28;20290;-69
2023/06/22 23:44:45;;;;;;;0.52;0.30;;;;;;;;;;20889070;28;20236;-70
2023/06/22 23:54:47;;;;;;;0.47;0.40;;;;;;;;;;20879129;28;20289;-69
